Time;durP1;ratioP1;P1;durP2;ratioP2;P2;SDS_P1;SDS_P2;PMS_P1;PMS_P2;Temp;Humidity;BMP_temperature;BMP_pressure;BME280_temperature;BME280_humidity;BME280_pressure;Samples;Min_cycle;Max_cycle;Signal;HPM_P1;HPM_P2
2022/02/14 00:02:16;;;;;;;84.80;33.18;;;;;;;0.73;72.56;100905.08;1736932;82;21448;-83
2022/02/14 00:04:42;;;;;;;79.80;30.75;;;;;;;0.73;72.51;100905.08;1736799;81;21018;-81
2022/02/14 00:07:10;;;;;;;80.67;31.90;;;;;;;0.70;72.55;100904.49;1710744;83;21052;-83
2022/02/14 00:09:36;;;;;;;81.45;30.37;;;;;;;0.69;72.55;100906.56;1736959;82;21436;-84
2022/02/14 00:12:04;;;;;;;301.30;82.00;;;;;;;0.66;72.51;100908.97;1710796;83;21708;-83
2022/02/14 00:14:30;;;;;;;262.82;73.62;;;;;;;0.63;72.52;100903.98;1736948;82;20967;-83
2022/02/14 00:16:57;;;;;;;252.38;70.90;;;;;;;0.61;72.58;100906.88;1736949;82;21484;-83
2022/02/14 00:19:24;;;;;;;149.65;46.68;;;;;;;0.57;72.65;100906.66;1736952;82;21078;-84
2022/02/14 00:21:50;;;;;;;152.85;46.90;;;;;;;0.55;72.66;100906.95;1736992;82;20990;-83
2022/02/14 00:24:17;;;;;;;80.65;30.25;;;;;;;0.52;72.71;100913.61;1737061;82;21785;-83
2022/02/14 00:26:44;;;;;;;78.00;31.20;;;;;;;0.48;72.76;100907.73;1710689;83;21440;-84
2022/02/14 00:29:13;;;;;;;83.42;33.28;;;;;;;0.45;72.84;100907.14;1736983;82;20987;-83
2022/02/14 00:31:39;;;;;;;95.92;34.85;;;;;;;0.41;72.89;100905.52;1710690;82;21004;-83
2022/02/14 00:34:06;;;;;;;97.95;36.55;;;;;;;0.36;72.96;100908.69;1736926;82;21027;-83
2022/02/14 00:36:34;;;;;;;114.35;37.80;;;;;;;0.35;73.04;100911.17;1710924;83;21754;-83
2022/02/14 00:39:01;;;;;;;99.47;33.88;;;;;;;0.32;73.10;100912.23;1736921;82;21468;-84
2022/02/14 00:41:27;;;;;;;100.30;32.67;;;;;;;0.30;73.14;100906.06;1710942;83;21008;-84
2022/02/14 00:43:54;;;;;;;81.42;30.23;;;;;;;0.27;73.18;100908.46;1736990;82;20968;-84
2022/02/14 00:46:21;;;;;;;82.62;29.63;;;;;;;0.24;73.26;100907.83;1710866;83;21043;-82
2022/02/14 00:48:47;;;;;;;74.92;26.90;;;;;;;0.22;73.28;100902.95;1736916;82;22528;-82
2022/02/14 00:51:14;;;;;;;61.73;25.15;;;;;;;0.21;73.39;100904.13;1710762;83;20980;-82
2022/02/14 00:53:40;;;;;;;54.60;23.75;;;;;;;0.21;73.48;100903.77;1736958;82;21429;-82
2022/02/14 00:56:07;;;;;;;48.28;22.52;;;;;;;0.21;73.51;100905.43;1736908;82;21588;-83
2022/02/14 00:58:34;;;;;;;35.90;18.70;;;;;;;0.21;73.54;100913.20;1737104;82;20979;-84
2022/02/14 01:01:00;;;;;;;38.33;18.98;;;;;;;0.21;73.64;100898.95;1737047;82;21889;-84
2022/02/14 01:03:27;;;;;;;40.78;19.67;;;;;;;0.20;73.65;100885.13;1736990;81;20940;-83
2022/02/14 01:05:54;;;;;;;34.95;17.62;;;;;;;0.20;73.65;100883.83;1710517;83;21019;-83
2022/02/14 01:08:21;;;;;;;33.67;17.95;;;;;;;0.20;73.73;100878.66;1737116;82;21309;-84
2022/02/14 01:10:48;;;;;;;34.38;18.00;;;;;;;0.21;73.74;100877.87;1737175;82;20971;-84
2022/02/14 01:13:14;;;;;;;38.65;19.23;;;;;;;0.19;73.75;100871.70;1718045;82;21729;-84
2022/02/14 01:15:41;;;;;;;38.60;19.98;;;;;;;0.21;73.79;100874.36;1736986;82;21213;-84
2022/02/14 01:18:08;;;;;;;40.40;19.73;;;;;;;0.21;73.78;100871.41;1710827;83;21518;-84
2022/02/14 01:20:34;;;;;;;38.50;19.20;;;;;;;0.21;73.77;100865.30;1736926;82;21172;-84
2022/02/14 01:23:01;;;;;;;38.60;19.07;;;;;;;0.21;73.83;100870.11;1710995;83;21016;-84
2022/02/14 01:25:27;;;;;;;35.30;18.07;;;;;;;0.17;73.81;100865.52;1737007;82;21605;-83
2022/02/14 01:27:54;;;;;;;38.58;20.30;;;;;;;0.16;73.81;100854.66;1710787;83;21450;-84
2022/02/14 01:30:21;;;;;;;35.08;18.07;;;;;;;0.15;73.84;100860.61;1737084;82;20951;-84
2022/02/14 01:32:48;;;;;;;34.18;17.52;;;;;;;0.13;73.89;100854.43;1710867;83;21452;-84
2022/02/14 01:35:14;;;;;;;33.30;16.70;;;;;;;0.13;73.96;100850.17;1737065;82;20992;-84
2022/02/14 01:37:41;;;;;;;27.35;15.13;;;;;;;0.12;73.98;100848.36;1736964;82;21739;-84
2022/02/14 01:40:10;;;;;;;27.73;15.18;;;;;;;0.11;74.00;100850.47;1736846;82;21477;-84
2022/02/14 01:42:36;;;;;;;29.25;15.88;;;;;;;0.11;74.04;100840.13;1710745;83;21004;-83
2022/02/14 01:45:04;;;;;;;28.83;15.00;;;;;;;0.11;74.06;100836.61;1736981;82;20978;-84
2022/02/14 01:47:31;;;;;;;27.32;14.70;;;;;;;0.10;74.08;100838.71;1710860;83;20988;-83
2022/02/14 01:49:58;;;;;;;25.68;14.85;;;;;;;0.10;74.08;100837.02;1737032;82;22392;-83
2022/02/14 01:52:28;;;;;;;29.52;15.78;;;;;;;0.09;74.08;100828.73;1710795;83;21454;-83
2022/02/14 01:54:53;;;;;;;27.13;16.10;;;;;;;0.09;74.11;100832.61;1736673;82;20996;-83
2022/02/14 01:57:20;;;;;;;25.95;14.70;;;;;;;0.05;74.07;100826.73;1737050;81;21032;-83
2022/02/14 01:59:47;;;;;;;24.77;14.68;;;;;;;0.04;74.10;100822.74;1736923;81;20979;-83
2022/02/14 02:02:14;;;;;;;26.17;14.38;;;;;;;0.03;74.19;100820.97;1710843;83;21930;-85
2022/02/14 02:04:43;;;;;;;25.50;15.38;;;;;;;0.02;74.18;100817.49;1736841;82;20991;-84
2022/02/14 02:07:10;;;;;;;26.75;15.55;;;;;;;0.01;74.17;100813.50;1710351;82;21043;-85
2022/02/14 02:09:37;;;;;;;27.25;14.98;;;;;;;-0.02;74.17;100811.58;1737066;81;20971;-83
2022/02/14 02:12:22;;;;;;;31.07;15.80;;;;;;;-0.04;74.22;100815.75;1710878;83;21044;-83
2022/02/14 02:14:59;;;;;;;34.80;15.20;;;;;;;-0.07;74.24;100804.81;1736930;82;22656;-83
2022/02/14 02:17:29;;;;;;;26.52;15.18;;;;;;;-0.07;74.26;100806.11;1709895;83;21019;-83
2022/02/14 02:19:56;;;;;;;29.80;15.58;;;;;;;-0.07;74.29;100807.39;1736878;81;21027;-84
2022/02/14 02:22:23;;;;;;;26.57;14.78;;;;;;;-0.09;74.29;100799.05;1710770;83;21023;-84
2022/02/14 02:24:54;;;;;;;29.48;16.57;;;;;;;-0.09;74.27;100794.75;1736952;82;21014;-84
2022/02/14 02:27:21;;;;;;;25.17;14.73;;;;;;;-0.10;74.30;100795.53;1710509;83;22608;-83
2022/02/14 02:29:49;;;;;;;25.08;13.95;;;;;;;-0.09;74.35;100792.57;1736889;82;20952;-84
2022/02/14 02:32:15;;;;;;;27.25;14.35;;;;;;;-0.12;74.28;100781.59;1710876;83;21015;-84
2022/02/14 02:34:43;;;;;;;24.02;13.60;;;;;;;-0.12;74.34;100776.83;1736906;81;21054;-84
2022/02/14 02:37:12;;;;;;;25.08;14.28;;;;;;;-0.12;74.31;100774.24;1710829;83;21012;-83
2022/02/14 02:39:38;;;;;;;31.05;14.07;;;;;;;-0.14;74.33;100778.42;1736936;82;22595;-83
2022/02/14 02:42:05;;;;;;;27.30;14.33;;;;;;;-0.14;74.38;100781.00;1710748;83;21575;-84
2022/02/14 02:44:34;;;;;;;27.95;15.65;;;;;;;-0.14;74.40;100775.42;1737002;81;21010;-82
2022/02/14 02:47:01;;;;;;;27.13;15.03;;;;;;;-0.14;74.42;100774.13;1710694;83;21031;-84
2022/02/14 02:49:31;;;;;;;26.70;15.72;;;;;;;-0.10;74.49;100775.23;1736980;82;20978;-84
2022/02/14 02:51:56;;;;;;;24.00;13.90;;;;;;;-0.07;74.44;100775.05;1710371;83;21348;-82
2022/02/14 02:54:23;;;;;;;28.52;15.95;;;;;;;-0.06;74.46;100771.66;1736843;82;21002;-83
2022/02/14 02:56:53;;;;;;;29.37;16.32;;;;;;;-0.04;74.45;100768.80;1712348;82;21038;-83
2022/02/14 02:59:21;;;;;;;27.70;16.15;;;;;;;-0.02;74.45;100766.30;1779727;80;20968;-83
2022/02/14 03:01:48;;;;;;;30.85;16.00;;;;;;;-0.01;74.46;100766.41;1773916;80;21457;-83
2022/02/14 03:04:15;;;;;;;29.55;15.48;;;;;;;0.01;74.40;100761.74;1771421;80;21697;-83
2022/02/14 03:06:42;;;;;;;28.55;15.18;;;;;;;0.02;74.38;100768.69;1751726;80;21021;-82
2022/02/14 03:09:09;;;;;;;28.32;16.07;;;;;;;0.03;74.41;100764.92;1746889;82;20986;-83
2022/02/14 03:11:37;;;;;;;27.87;16.12;;;;;;;0.05;74.41;100762.03;1747086;82;20999;-83
2022/02/14 03:14:04;;;;;;;27.90;15.18;;;;;;;0.08;74.39;100762.66;1747055;82;21054;-83
2022/02/14 03:16:30;;;;;;;31.17;15.28;;;;;;;0.09;74.36;100762.73;1747173;81;21877;-83
2022/02/14 03:18:57;;;;;;;28.00;15.43;;;;;;;0.09;74.30;100751.50;1747133;81;20936;-83
2022/02/14 03:21:24;;;;;;;31.05;15.13;;;;;;;0.09;74.23;100754.08;1747108;82;21527;-83
2022/02/14 03:23:51;;;;;;;23.77;14.03;;;;;;;0.04;74.10;100750.28;1747180;82;20970;-83
2022/02/14 03:26:19;;;;;;;31.62;15.83;;;;;;;-0.01;74.10;100753.46;1747071;81;21577;-83
2022/02/14 03:28:48;;;;;;;27.62;15.72;;;;;;;-0.05;74.12;100748.00;1747258;82;21744;-81
2022/02/14 03:31:15;;;;;;;27.30;15.78;;;;;;;-0.08;74.16;100746.48;1746758;82;21019;-84
2022/02/14 03:33:43;;;;;;;29.02;15.63;;;;;;;-0.12;74.18;100744.48;1747252;81;21511;-84
2022/02/14 03:36:10;;;;;;;28.80;15.72;;;;;;;-0.16;74.23;100749.84;1747240;82;21014;-84
2022/02/14 03:38:37;;;;;;;26.90;15.30;;;;;;;-0.18;74.30;100747.96;1747250;81;20991;-84
2022/02/14 03:41:04;;;;;;;29.37;15.32;;;;;;;-0.20;74.37;100759.49;1747264;82;22529;-83
2022/02/14 03:43:31;;;;;;;30.20;16.05;;;;;;;-0.21;74.40;100752.52;1747104;82;20986;-83
2022/02/14 03:45:57;;;;;;;30.70;16.30;;;;;;;-0.23;74.45;100761.45;1747229;82;20951;-84
2022/02/14 03:48:25;;;;;;;27.80;15.80;;;;;;;-0.24;74.51;100758.80;1747347;81;21038;-83
2022/02/14 03:50:53;;;;;;;31.33;15.88;;;;;;;-0.25;74.51;100759.16;1747280;81;21484;-82
2022/02/14 03:53:20;;;;;;;29.63;16.90;;;;;;;-0.27;74.50;100752.98;1747256;81;22676;-82
2022/02/14 03:55:47;;;;;;;29.45;15.72;;;;;;;-0.29;74.54;100744.23;1747237;82;21030;-83
2022/02/14 03:58:13;;;;;;;30.17;16.05;;;;;;;-0.32;74.61;100744.05;1747321;82;21010;-83
2022/02/14 04:00:41;;;;;;;30.35;16.52;;;;;;;-0.31;74.60;100748.81;1747233;81;21232;-83
2022/02/14 04:03:08;;;;;;;27.27;16.20;;;;;;;-0.32;74.66;100740.53;1747258;81;21452;-82
2022/02/14 04:05:35;;;;;;;32.30;18.65;;;;;;;-0.33;74.67;100737.06;1747260;80;22555;-83
2022/02/14 04:08:02;;;;;;;36.60;19.52;;;;;;;-0.34;74.74;100731.38;1747053;81;21002;-83
2022/02/14 04:10:28;;;;;;;36.10;21.15;;;;;;;-0.34;74.71;100733.08;1747191;82;21067;-83
2022/02/14 04:12:55;;;;;;;32.95;19.73;;;;;;;-0.36;74.78;100731.67;1747324;82;20982;-83
2022/02/14 04:15:22;;;;;;;30.57;19.07;;;;;;;-0.36;74.80;100730.78;1747359;81;21050;-83
2022/02/14 04:17:48;;;;;;;31.15;18.60;;;;;;;-0.37;74.82;100727.31;1747351;81;21661;-83
2022/02/14 04:20:15;;;;;;;40.05;19.55;;;;;;;-0.37;74.87;100727.31;1747212;82;20994;-83
2022/02/14 04:22:42;;;;;;;34.10;19.80;;;;;;;-0.37;74.88;100723.43;1747309;81;21034;-83
2022/02/14 04:25:09;;;;;;;29.23;17.70;;;;;;;-0.39;74.86;100723.73;1747223;82;21018;-83
2022/02/14 04:27:36;;;;;;;28.42;17.12;;;;;;;-0.41;74.86;100730.48;1747066;81;21440;-84
2022/02/14 04:30:04;;;;;;;29.15;17.60;;;;;;;-0.44;74.83;100728.56;1747381;81;21738;-84
2022/02/14 04:32:31;;;;;;;30.35;17.02;;;;;;;-0.46;74.81;100727.97;1747335;81;20947;-83
2022/02/14 04:34:58;;;;;;;32.50;18.05;;;;;;;-0.50;74.83;100726.86;1747369;81;20984;-82
2022/02/14 04:37:25;;;;;;;32.50;18.25;;;;;;;-0.53;74.89;100724.05;1747367;82;21578;-82
2022/02/14 04:39:51;;;;;;;32.05;18.42;;;;;;;-0.54;74.95;100728.74;1747243;81;20999;-82
2022/02/14 04:42:20;;;;;;;32.55;18.00;;;;;;;-0.57;74.98;100725.93;1747377;82;21777;-82
2022/02/14 04:44:47;;;;;;;30.02;17.95;;;;;;;-0.59;75.02;100721.94;1747256;82;20974;-82
2022/02/14 04:47:14;;;;;;;34.13;18.77;;;;;;;-0.62;75.08;100717.88;1747201;81;21050;-82
2022/02/14 04:49:41;;;;;;;30.43;16.90;;;;;;;-0.63;75.15;100708.71;1747333;81;20982;-83
2022/02/14 04:52:07;;;;;;;33.20;18.45;;;;;;;-0.64;75.21;100714.29;1747207;81;20991;-82
2022/02/14 04:54:34;;;;;;;38.25;19.77;;;;;;;-0.65;75.31;100715.06;1747354;81;21741;-82
2022/02/14 04:57:01;;;;;;;39.48;19.82;;;;;;;-0.65;75.37;100715.06;1747134;81;21049;-82
2022/02/14 04:59:27;;;;;;;34.00;19.70;;;;;;;-0.64;75.43;100721.13;1747323;81;20978;-83
2022/02/14 05:01:54;;;;;;;37.05;19.67;;;;;;;-0.64;75.45;100722.41;1747105;81;21438;-82
2022/02/14 05:04:22;;;;;;;34.08;19.30;;;;;;;-0.62;75.50;100720.83;1747375;81;21045;-82
2022/02/14 05:06:49;;;;;;;34.65;18.25;;;;;;;-0.62;75.51;100723.05;1762034;80;21743;-82
2022/02/14 05:09:16;;;;;;;32.78;16.57;;;;;;;-0.62;75.49;100722.13;1771097;80;20983;-83
2022/02/14 05:11:43;;;;;;;35.20;16.85;;;;;;;-0.63;75.58;100722.53;1771448;80;21533;-83
2022/02/14 05:14:10;;;;;;;31.50;17.87;;;;;;;-0.62;75.58;100721.75;1771497;81;21077;-83
2022/02/14 05:16:36;;;;;;;29.10;16.27;;;;;;;-0.61;75.57;100719.65;1771476;81;21002;-83
2022/02/14 05:19:03;;;;;;;32.90;16.67;;;;;;;-0.58;75.60;100725.45;1765904;80;21737;-85
2022/02/14 05:21:30;;;;;;;31.57;17.40;;;;;;;-0.59;75.60;100724.93;1744969;81;20967;-84
2022/02/14 05:23:57;;;;;;;32.75;18.65;;;;;;;-0.59;75.58;100721.94;1749915;80;20984;-84
2022/02/14 05:26:25;;;;;;;34.80;20.08;;;;;;;-0.59;75.58;100721.94;1743541;80;21664;-84
2022/02/14 05:28:55;;;;;;;31.77;17.50;;;;;;;-0.58;75.62;100724.16;1747492;80;21505;-84
2022/02/14 05:31:22;;;;;;;33.98;17.65;;;;;;;-0.58;75.64;100726.74;1737663;80;21877;-85
2022/02/14 05:33:50;;;;;;;31.42;17.17;;;;;;;-0.55;75.68;100724.34;1744810;81;20975;-85
2022/02/14 05:36:18;;;;;;;25.80;15.60;;;;;;;-0.54;75.65;100719.69;1745766;80;21070;-85
2022/02/14 05:38:45;;;;;;;28.25;17.20;;;;;;;-0.53;75.63;100719.28;1753368;80;20996;-83
2022/02/14 05:41:11;;;;;;;31.02;16.80;;;;;;;-0.53;75.61;100723.16;1751978;80;21070;-83
2022/02/14 05:43:38;;;;;;;27.52;17.30;;;;;;;-0.52;75.66;100724.97;1748196;80;21913;-83
2022/02/14 05:46:13;;;;;;;30.97;17.00;;;;;;;-0.50;75.67;100724.27;1744852;81;21074;-83
2022/02/14 05:48:33;;;;;;;29.72;16.62;;;;;;;-0.49;75.66;100716.11;1743256;80;21007;-83
2022/02/14 05:51:00;;;;;;;35.70;18.30;;;;;;;-0.48;75.66;100727.86;1745732;80;20955;-83
2022/02/14 05:53:26;;;;;;;28.80;16.37;;;;;;;-0.46;75.63;100722.80;1745836;80;21631;-83
2022/02/14 05:55:53;;;;;;;32.85;17.45;;;;;;;-0.46;75.65;100722.39;1745795;80;21809;-84
2022/02/14 05:58:20;;;;;;;33.70;17.87;;;;;;;-0.44;75.67;100717.33;1745769;80;21011;-83
2022/02/14 06:00:46;;;;;;;31.23;17.55;;;;;;;-0.42;75.64;100725.69;1745773;80;20983;-83
2022/02/14 06:03:13;;;;;;;27.93;17.25;;;;;;;-0.42;75.59;100720.91;1745761;82;21495;-82
2022/02/14 06:05:40;;;;;;;33.83;18.00;;;;;;;-0.42;75.56;100720.52;1745838;80;21462;-84
2022/02/14 06:08:07;;;;;;;30.05;17.73;;;;;;;-0.41;75.58;100721.43;1711422;83;22650;-83
2022/02/14 06:10:33;;;;;;;28.57;17.85;;;;;;;-0.40;75.53;100724.50;1729977;83;20965;-87
2022/02/14 06:13:00;;;;;;;32.00;18.92;;;;;;;-0.40;75.57;100726.68;1675009;83;21012;-87
2022/02/14 06:15:28;;;;;;;36.25;20.27;;;;;;;-0.38;75.54;100724.61;1619431;86;21046;-86
2022/02/14 06:17:56;;;;;;;40.10;21.02;;;;;;;-0.37;75.54;100722.54;1649479;86;21016;-88
2022/02/14 06:20:26;;;;;;;37.85;21.10;;;;;;;-0.33;75.56;100727.12;1651202;86;21159;-87
2022/02/14 06:22:53;;;;;;;39.55;20.68;;;;;;;-0.32;75.47;100728.90;1650801;86;21032;-90
2022/02/14 06:25:21;;;;;;;36.17;19.95;;;;;;;-0.30;75.51;100729.90;1650680;86;21036;-90
2022/02/14 06:27:48;;;;;;;32.40;18.40;;;;;;;-0.26;75.51;100726.75;1650612;86;20996;-89
2022/02/14 06:30:14;;;;;;;30.32;17.77;;;;;;;-0.20;75.56;100729.75;1650454;86;21018;-87
2022/02/14 06:32:41;;;;;;;27.52;17.23;;;;;;;-0.16;75.48;100721.80;1650643;86;21981;-86
2022/02/14 06:35:08;;;;;;;29.32;17.20;;;;;;;-0.11;75.41;100728.16;1675196;83;21444;-84
2022/02/14 06:37:36;;;;;;;30.77;17.75;;;;;;;-0.07;75.39;100722.02;1677091;84;21058;-85
2022/02/14 06:40:05;;;;;;;28.95;17.20;;;;;;;-0.05;75.32;100723.01;1677206;83;21146;-88
2022/02/14 06:42:34;;;;;;;30.48;19.07;;;;;;;0.01;75.28;100724.22;1714407;82;20986;-88
2022/02/14 06:45:01;;;;;;;32.73;16.95;;;;;;;0.04;75.24;100720.15;1714108;83;22438;-88
2022/02/14 06:47:28;;;;;;;31.07;17.52;;;;;;;0.09;75.16;100717.84;1715467;83;21413;-87
2022/02/14 06:49:54;;;;;;;31.65;17.90;;;;;;;0.11;75.07;100723.65;1714701;83;20954;-88
2022/02/14 06:52:21;;;;;;;34.18;18.62;;;;;;;0.14;75.03;100721.24;1714972;83;20938;-88
2022/02/14 06:54:48;;;;;;;30.27;17.77;;;;;;;0.16;74.92;100719.64;1714942;83;20973;-88
2022/02/14 06:57:15;;;;;;;31.75;17.45;;;;;;;0.18;74.88;100719.34;1715125;83;22482;-88
2022/02/14 06:59:42;;;;;;;33.95;17.67;;;;;;;0.24;74.87;100720.55;1714784;83;20981;-88
2022/02/14 07:02:10;;;;;;;28.98;17.62;;;;;;;0.29;74.80;100725.64;1714218;83;20989;-90
2022/02/14 07:04:40;;;;;;;31.50;18.05;;;;;;;0.33;74.75;100734.11;1715038;83;20961;-86
2022/02/14 07:07:05;;;;;;;38.00;20.23;;;;;;;0.38;74.72;100735.31;1713679;82;21514;-87
2022/02/14 07:09:33;;;;;;;35.35;19.50;;;;;;;0.45;74.68;100731.41;1714418;83;22650;-87
2022/02/14 07:11:59;;;;;;;49.90;25.77;;;;;;;0.50;74.68;100730.91;1715487;82;21007;-88
2022/02/14 07:14:26;;;;;;;42.75;22.80;;;;;;;0.56;74.53;100735.59;1691172;83;21067;-87
2022/02/14 07:16:53;;;;;;;40.08;21.07;;;;;;;0.61;74.41;100735.50;1728803;82;21503;-87
2022/02/14 07:19:20;;;;;;;32.55;18.25;;;;;;;0.63;74.30;100727.42;1714741;83;21454;-87
2022/02/14 07:21:46;;;;;;;38.55;21.75;;;;;;;0.68;74.24;100723.44;1716406;82;21841;-87
2022/02/14 07:24:13;;;;;;;47.78;24.27;;;;;;;0.71;74.19;100717.55;1732914;82;20986;-87
2022/02/14 07:26:40;;;;;;;49.27;26.33;;;;;;;0.76;74.05;100729.11;1724234;82;21004;-87
2022/02/14 07:29:07;;;;;;;39.18;21.52;;;;;;;0.80;74.02;100723.73;1715391;83;21584;-87
2022/02/14 07:31:33;;;;;;;37.75;20.70;;;;;;;0.84;73.90;100724.41;1723536;82;20987;-88
2022/02/14 07:34:00;;;;;;;32.55;19.00;;;;;;;0.86;73.83;100722.81;1730213;82;21896;-87
2022/02/14 07:36:29;;;;;;;29.45;18.70;;;;;;;0.90;73.78;100728.68;1714415;83;20999;-88
2022/02/14 07:38:55;;;;;;;35.28;19.70;;;;;;;0.92;73.63;100728.00;1719610;82;20976;-88
2022/02/14 07:41:22;;;;;;;33.78;19.30;;;;;;;0.95;73.57;100729.88;1714901;83;21159;-88
2022/02/14 07:43:49;;;;;;;33.00;17.87;;;;;;;0.99;73.52;100726.67;1715010;83;21563;-89
2022/02/14 07:46:18;;;;;;;32.53;18.40;;;;;;;1.03;73.47;100719.98;1715031;83;22665;-87
2022/02/14 07:48:46;;;;;;;35.73;19.80;;;;;;;1.06;73.44;100724.97;1714957;83;20975;-88
2022/02/14 07:51:20;;;;;;;39.20;21.30;;;;;;;1.12;73.37;100718.86;1739600;82;21039;-88
2022/02/14 07:53:45;;;;;;;35.65;20.72;;;;;;;1.17;73.32;100717.86;1714433;83;21528;-88
2022/02/14 07:56:13;;;;;;;36.17;19.60;;;;;;;1.23;73.23;100707.86;1715003;83;21023;-88
2022/02/14 07:58:42;;;;;;;29.30;18.10;;;;;;;1.30;73.21;100713.93;1716315;83;20965;-88
2022/02/14 08:01:09;;;;;;;32.15;18.37;;;;;;;1.40;73.16;100711.48;1718750;82;21096;-89
2022/02/14 08:03:36;;;;;;;30.90;19.10;;;;;;;1.50;73.10;100707.38;1735456;82;21504;-88
2022/02/14 08:06:03;;;;;;;29.05;17.90;;;;;;;1.65;73.19;100710.00;1729998;82;21035;-88
2022/02/14 08:08:30;;;;;;;33.08;19.62;;;;;;;1.78;73.05;100709.41;1722463;80;21070;-88
2022/02/14 08:10:57;;;;;;;32.55;18.12;;;;;;;1.87;72.88;100694.39;1733627;82;21863;-88
2022/02/14 08:13:24;;;;;;;35.25;18.25;;;;;;;2.08;72.78;100691.77;1723298;82;21051;-87
2022/02/14 08:15:53;;;;;;;25.77;16.40;;;;;;;2.26;72.72;100697.11;1714912;83;21500;-88
2022/02/14 08:18:20;;;;;;;28.85;17.42;;;;;;;2.44;72.47;100691.16;1723240;82;21116;-88
2022/02/14 08:20:47;;;;;;;29.48;18.23;;;;;;;2.61;72.29;100690.80;1731031;81;20979;-87
2022/02/14 08:23:13;;;;;;;25.80;16.10;;;;;;;2.79;72.24;100690.53;1714884;83;22506;-87
2022/02/14 08:25:40;;;;;;;27.85;16.80;;;;;;;2.97;71.99;100681.98;1715251;82;20943;-88
2022/02/14 08:28:07;;;;;;;30.60;17.62;;;;;;;3.15;71.78;100684.24;1738308;82;21101;-88
2022/02/14 08:30:35;;;;;;;25.70;17.12;;;;;;;3.35;71.50;100680.52;1772305;80;21193;-88
2022/02/14 08:33:01;;;;;;;33.60;18.10;;;;;;;3.50;71.29;100673.09;1715027;83;20971;-88
2022/02/14 08:35:29;;;;;;;26.68;16.37;;;;;;;3.66;70.92;100673.50;1727390;82;21900;-88
2022/02/14 08:37:56;;;;;;;25.45;15.75;;;;;;;3.80;70.74;100674.61;1726717;82;21071;-88
2022/02/14 08:40:23;;;;;;;29.45;16.42;;;;;;;3.95;70.54;100669.29;1715022;83;21011;-87
2022/02/14 08:42:50;;;;;;;28.23;15.53;;;;;;;4.06;70.28;100670.30;1715001;83;20971;-87
2022/02/14 08:45:19;;;;;;;27.22;15.15;;;;;;;4.16;70.03;100669.04;1715014;83;20964;-87
2022/02/14 08:47:49;;;;;;;31.42;17.95;;;;;;;4.23;69.62;100662.02;1715838;82;21827;-87
2022/02/14 08:50:14;;;;;;;30.00;16.60;;;;;;;4.27;69.36;100658.73;1713072;82;21472;-87
2022/02/14 08:52:41;;;;;;;34.65;18.92;;;;;;;4.32;69.11;100653.77;1713366;83;21466;-87
2022/02/14 08:55:08;;;;;;;30.48;16.70;;;;;;;4.39;69.07;100656.23;1713498;83;21099;-87
2022/02/14 08:57:36;;;;;;;32.60;16.02;;;;;;;4.44;68.60;100652.15;1713299;83;21019;-88
2022/02/14 09:00:06;;;;;;;36.30;18.70;;;;;;;4.46;68.53;100653.11;1713538;82;21544;-88
2022/02/14 09:02:33;;;;;;;45.63;23.35;;;;;;;4.51;68.28;100654.66;1744845;81;21000;-92
2022/02/14 09:05:00;;;;;;;68.30;33.40;;;;;;;4.52;68.14;100648.60;1713726;83;21466;-94
2022/02/14 09:07:27;;;;;;;71.30;34.30;;;;;;;4.56;68.01;100654.44;1708904;82;21023;-91
2022/02/14 09:09:53;;;;;;;52.35;26.23;;;;;;;4.61;67.86;100646.44;1700919;84;21008;-92
2022/02/14 09:12:22;;;;;;;31.70;18.82;;;;;;;4.62;67.58;100654.34;1698631;84;21904;-88
2022/02/14 09:14:50;;;;;;;27.37;17.45;;;;;;;4.64;67.50;100643.56;1701850;82;21005;-87
2022/02/14 09:17:18;;;;;;;29.65;19.00;;;;;;;4.67;67.30;100634.59;1686229;84;21007;-87
2022/02/14 09:19:45;;;;;;;24.30;15.35;;;;;;;4.70;67.19;100637.75;1737240;82;20990;-87
2022/02/14 09:22:14;;;;;;;25.27;14.47;;;;;;;4.71;67.02;100638.24;1737198;82;21058;-87
2022/02/14 09:24:40;;;;;;;22.70;12.40;;;;;;;4.69;66.88;100629.42;1737368;82;21835;-87
2022/02/14 09:27:07;;;;;;;27.25;14.33;;;;;;;4.73;66.80;100631.38;1737872;82;21078;-87
2022/02/14 09:29:37;;;;;;;27.52;15.43;;;;;;;4.74;66.58;100633.15;1707221;83;21119;-87
2022/02/14 09:32:03;;;;;;;20.90;13.35;;;;;;;4.75;66.51;100626.21;1703237;82;21938;-87
2022/02/14 09:34:29;;;;;;;22.85;13.30;;;;;;;4.80;66.46;100622.11;1700632;84;21012;-88
2022/02/14 09:36:59;;;;;;;22.25;13.08;;;;;;;4.84;66.42;100617.52;1701321;84;21808;-88
2022/02/14 09:39:30;;;;;;;20.65;13.22;;;;;;;4.89;66.32;100617.31;1701479;82;21015;-87
2022/02/14 09:41:53;;;;;;;21.02;12.88;;;;;;;4.93;66.24;100615.33;1702154;82;21590;-84
2022/02/14 09:44:21;;;;;;;25.70;13.28;;;;;;;4.98;66.12;100607.30;1701919;84;21009;-87
2022/02/14 09:46:48;;;;;;;26.40;14.85;;;;;;;5.03;66.14;100607.11;1702075;84;21068;-88
2022/02/14 09:49:14;;;;;;;25.05;15.28;;;;;;;5.11;65.88;100608.75;1701567;84;21781;-84
2022/02/14 09:51:43;;;;;;;26.90;14.95;;;;;;;5.21;65.91;100612.66;1702021;83;21477;-90
2022/02/14 09:54:09;;;;;;;23.20;14.15;;;;;;;5.29;65.79;100605.16;1728319;82;21599;-91
2022/02/14 09:56:36;;;;;;;25.10;15.13;;;;;;;5.38;65.67;100604.27;1729112;82;21520;-91
2022/02/14 09:59:05;;;;;;;22.93;13.68;;;;;;;5.48;65.54;100599.02;1710742;83;21476;-91
2022/02/14 10:01:35;;;;;;;20.10;12.95;;;;;;;5.56;65.43;100593.73;1710173;83;21750;-92
2022/02/14 10:04:02;;;;;;;20.80;12.82;;;;;;;5.63;65.17;100587.53;1680014;84;21471;-92
2022/02/14 10:06:32;;;;;;;21.10;13.35;;;;;;;5.71;65.17;100595.68;1701376;84;21003;-92
2022/02/14 10:09:12;;;;;;;23.62;14.73;;;;;;;5.82;65.19;100590.49;1712544;82;20990;-92
2022/02/14 10:11:54;;;;;;;20.95;11.60;;;;;;;5.94;64.97;100588.79;1713904;82;20988;-93
2022/02/14 10:14:21;;;;;;;20.08;12.65;;;;;;;6.05;64.88;100581.86;1715662;82;22593;-92
2022/02/14 10:17:09;;;;;;;23.70;13.95;;;;;;;6.15;64.64;100578.34;1716670;82;21440;-90
2022/02/14 10:19:45;;;;;;;22.55;14.58;;;;;;;6.18;64.39;100585.44;1713419;83;20989;-90
2022/02/14 10:22:10;;;;;;;30.08;16.00;;;;;;;6.27;64.34;100584.89;1690918;83;21149;-86
2022/02/14 10:24:41;;;;;;;23.85;14.53;;;;;;;6.39;64.23;100579.73;1708932;84;20973;-87
2022/02/14 10:27:08;;;;;;;21.07;13.18;;;;;;;6.49;64.02;100573.13;1709084;84;21746;-92
2022/02/14 10:29:36;;;;;;;22.82;14.05;;;;;;;6.57;63.98;100576.95;1707812;83;21108;-88
2022/02/14 10:32:23;;;;;;;19.20;11.93;;;;;;;6.67;63.80;100575.57;1708920;84;21027;-87
2022/02/14 10:34:54;;;;;;;;;;;;;;;6.73;63.50;100569.67;1679573;85;21036;-92
2022/02/14 10:37:42;;;;;;;20.37;13.22;;;;;;;6.78;63.41;100572.94;1676856;85;20204;-86
2022/02/14 10:40:10;;;;;;;23.35;12.98;;;;;;;6.86;63.28;100568.41;1700330;83;21742;-84
2022/02/14 10:42:37;;;;;;;23.92;13.80;;;;;;;6.89;63.02;100574.66;1714584;83;21497;-89
2022/02/14 10:45:11;;;;;;;20.02;12.07;;;;;;;6.89;62.92;100569.81;1709471;84;21521;-88
2022/02/14 10:47:50;;;;;;;19.10;12.93;;;;;;;6.94;62.85;100563.91;1665133;85;21009;-86
2022/02/14 10:50:18;;;;;;;20.70;13.03;;;;;;;7.00;62.73;100565.86;1706955;83;21023;-86
2022/02/14 10:53:03;;;;;;;20.27;13.83;;;;;;;7.07;62.52;100560.45;1709172;84;22459;-85
2022/02/14 10:55:42;;;;;;;20.92;12.60;;;;;;;7.14;62.46;100561.15;1709124;84;21478;-86
2022/02/14 10:58:07;;;;;;;20.25;13.05;;;;;;;7.25;62.36;100560.23;1677154;84;20980;-85
2022/02/14 11:00:41;;;;;;;27.55;14.38;;;;;;;7.35;62.30;100563.63;1711022;83;21024;-86
2022/02/14 11:03:08;;;;;;;20.72;13.08;;;;;;;7.44;62.26;100556.09;1708766;82;21116;-86
2022/02/14 11:05:34;;;;;;;19.25;12.60;;;;;;;7.55;62.05;100553.85;1709189;84;22575;-86
2022/02/14 11:08:01;;;;;;;21.62;11.63;;;;;;;7.62;61.75;100555.84;1704084;82;20980;-86
2022/02/14 11:10:28;;;;;;;22.80;12.10;;;;;;;7.67;61.66;100555.55;1695153;84;20975;-86
2022/02/14 11:12:58;;;;;;;21.15;12.40;;;;;;;7.75;61.56;100555.41;1694963;83;21043;-85
2022/02/14 11:15:30;;;;;;;18.27;12.23;;;;;;;7.83;61.38;100548.20;1694884;84;21525;-87
2022/02/14 11:18:04;;;;;;;16.07;11.18;;;;;;;7.89;61.06;100554.97;1694926;83;22007;-86